Time,TemperatureF,DewpointF,PressureIn,WindDirection,WindDirectionDegrees,WindSpeedMPH,WindSpeedGustMPH,Humidity,HourlyPrecipIn,Conditions,Clouds,dailyrainin,SoftwareType,DateUTC
2013-03-03 00:00:00,46.6,45.2,30.29,West,259,1.0,1.0,95,0.00,,,0.00,Wunderground v.1.15,2013-03-03 08:00:00,
2013-03-03 00:30:00,46.6,44.4,30.29,SSE,158,1.0,1.0,92,0.00,,,0.00,Wunderground v.1.15,2013-03-03 08:30:00,
2013-03-03 01:00:00,46.6,44.1,30.30,SE,129,1.0,1.0,91,0.00,,,0.00,Wunderground v.1.15,2013-03-03 09:00:00,
2013-03-03 01:30:00,46.2,43.7,30.30,SE,138,1.0,1.0,91,0.00,,,0.00,Wunderground v.1.15,2013-03-03 09:30:00,
2013-03-03 02:00:00,46.2,43.7,30.30,South,182,1.0,1.0,91,0.00,,,0.00,Wunderground v.1.15,2013-03-03 10:00:00,
2013-03-03 02:30:00,45.9,43.4,30.30,SE,128,1.0,1.0,91,0.00,,,0.00,Wunderground v.1.15,2013-03-03 10:30:00,
2013-03-03 03:00:00,45.3,43.1,30.30,ESE,107,0.0,3.0,92,0.00,,,0.00,Wunderground v.1.15,2013-03-03 11:00:00,
2013-03-03 03:30:00,45.5,42.7,30.30,SSW,212,1.0,1.0,90,0.00,,,0.00,Wunderground v.1.15,2013-03-03 11:30:00,
2013-03-03 04:00:00,44.6,41.8,30.30,SW,229,0.0,0.0,90,0.00,,,0.00,Wunderground v.1.15,2013-03-03 12:00:00,
2013-03-03 04:30:00,44.1,41.6,30.29,SW,215,0.0,0.0,91,0.00,,,0.00,Wunderground v.1.15,2013-03-03 12:30:00,
2013-03-03 05:00:00,42.5,40.9,30.30,SSE,159,0.0,0.0,94,0.00,,,0.00,Wunderground v.1.15,2013-03-03 13:00:00,
2013-03-03 05:30:00,42.3,40.7,30.30,SE,143,0.0,1.0,94,0.00,,,0.00,Wunderground v.1.15,2013-03-03 13:30:00,
2013-03-03 06:00:00,42.7,40.5,30.29,SSE,165,0.0,0.0,92,0.00,,,0.00,Wunderground v.1.15,2013-03-03 14:00:00,
2013-03-03 06:30:00,42.7,40.0,30.29,SSE,160,0.0,0.0,90,0.00,,,0.00,Wunderground v.1.15,2013-03-03 14:30:00,
2013-03-03 07:00:00,42.4,40.2,30.30,SE,125,0.0,2.0,92,0.00,,,0.00,Wunderground v.1.15,2013-03-03 15:00:00,
2013-03-03 07:30:00,41.5,39.1,30.31,SE,144,0.0,1.0,91,0.00,,,0.00,Wunderground v.1.15,2013-03-03 15:30:00,
2013-03-03 08:00:00,41.5,39.6,30.31,SSE,155,0.0,0.0,93,0.00,,,0.00,Wunderground v.1.15,2013-03-03 16:00:00,
2013-03-03 08:30:00,42.4,40.2,30.31,SE,138,0.0,0.0,92,0.00,,,0.00,Wunderground v.1.15,2013-03-03 16:30:00,
2013-03-03 09:00:00,43.8,40.8,30.31,ESE,115,1.0,2.0,89,0.00,,,0.00,Wunderground v.1.15,2013-03-03 17:00:00,
2013-03-03 09:30:00,45.4,42.1,30.31,SW,232,0.0,1.0,88,0.00,,,0.00,Wunderground v.1.15,2013-03-03 17:30:00,
2013-03-03 10:00:00,47.2,42.6,30.30,SW,229,1.0,1.0,84,0.00,,,0.00,Wunderground v.1.15,2013-03-03 18:00:00,
2013-03-03 10:30:00,48.8,42.6,30.30,ESE,115,1.0,1.0,79,0.00,,,0.00,Wunderground v.1.15,2013-03-03 18:30:00,
2013-03-03 11:00:00,48.8,42.2,30.29,SSE,161,1.0,1.0,78,0.00,,,0.00,Wunderground v.1.15,2013-03-03 19:00:00,
2013-03-03 11:30:00,49.5,41.6,30.28,SW,214,2.0,2.0,74,0.00,,,0.00,Wunderground v.1.15,2013-03-03 19:30:00,
2013-03-03 12:00:00,49.6,42.3,30.28,East,99,1.0,2.0,76,0.00,,,0.00,Wunderground v.1.15,2013-03-03 20:00:00,
2013-03-03 13:00:00,50.9,40.7,30.25,SE,136,1.0,2.0,68,0.00,,,0.00,Wunderground v.1.15,2013-03-03 21:00:00,
2013-03-03 13:30:00,53.7,43.4,30.25,NNE,17,0.0,3.0,68,0.00,,,0.00,Wunderground v.1.15,2013-03-03 21:30:00,
2013-03-03 14:00:00,50.5,42.2,30.24,SSE,154,1.0,2.0,73,0.00,,,0.00,Wunderground v.1.15,2013-03-03 22:00:00,
2013-03-03 14:30:00,49.7,42.1,30.24,ESE,122,1.0,1.0,75,0.00,,,0.00,Wunderground v.1.15,2013-03-03 22:30:00,
2013-03-03 15:00:00,49.2,42.3,30.24,SW,231,1.0,1.0,77,0.00,,,0.00,Wunderground v.1.15,2013-03-03 23:00:00,
2013-03-03 15:30:00,48.7,42.5,30.23,SE,141,2.0,2.0,79,0.00,,,0.00,Wunderground v.1.15,2013-03-03 23:30:00,
2013-03-03 16:00:00,48.2,43.0,30.23,SE,135,2.0,4.0,82,0.00,,,0.00,Wunderground v.1.15,2013-03-04 00:00:00,
2013-03-03 16:30:00,47.9,42.7,30.22,SE,126,1.0,1.0,82,0.00,,,0.00,Wunderground v.1.15,2013-03-04 00:30:00,
2013-03-03 17:00:00,47.3,42.4,30.22,SE,132,2.0,3.0,83,0.00,,,0.00,Wunderground v.1.15,2013-03-04 01:00:00,
2013-03-03 17:30:00,46.8,41.9,30.22,SSW,210,2.0,2.0,83,0.00,,,0.00,Wunderground v.1.15,2013-03-04 01:30:00,
2013-03-03 18:00:00,46.4,42.4,30.22,SE,134,1.0,3.0,86,0.00,,,0.00,Wunderground v.1.15,2013-03-04 02:00:00,
2013-03-03 18:30:00,46.3,42.3,30.22,SE,130,1.0,1.0,86,0.00,,,0.00,Wunderground v.1.15,2013-03-04 02:30:00,
2013-03-03 19:30:00,46.3,42.9,30.23,SE,134,1.0,2.0,88,0.00,,,0.00,Wunderground v.1.15,2013-03-04 03:30:00,
2013-03-03 20:00:00,45.4,41.8,30.22,ESE,112,1.0,1.0,87,0.00,,,0.00,Wunderground v.1.15,2013-03-04 04:00:00,
2013-03-03 20:30:00,43.4,40.9,30.22,SSE,167,0.0,0.0,91,0.00,,,0.00,Wunderground v.1.15,2013-03-04 04:30:00,
2013-03-03 21:00:00,41.8,40.2,30.22,SE,142,0.0,0.0,94,0.00,,,0.00,Wunderground v.1.15,2013-03-04 05:00:00,
2013-03-03 21:30:00,40.3,39.0,30.21,SE,132,0.0,0.0,95,0.00,,,0.00,Wunderground v.1.15,2013-03-04 05:30:00,
2013-03-03 22:00:00,39.0,38.0,30.20,SE,132,0.0,0.0,96,0.00,,,0.00,Wunderground v.1.15,2013-03-04 06:00:00,
2013-03-03 22:30:00,38.0,37.2,30.20,SE,132,0.0,0.0,97,0.00,,,0.00,Wunderground v.1.15,2013-03-04 06:30:00,
2013-03-03 23:00:00,37.2,36.4,30.19,SE,132,0.0,0.0,97,0.00,,,0.00,Wunderground v.1.15,2013-03-04 07:00:00,
2013-03-03 23:30:00,36.5,36.0,30.19,SE,131,0.0,0.0,98,0.00,,,0.00,Wunderground v.1.15,2013-03-04 07:30:00,